Time;durP1;ratioP1;P1;durP2;ratioP2;P2;SDS_P1;SDS_P2;PMS_P1;PMS_P2;Temp;Humidity;BMP_temperature;BMP_pressure;BME280_temperature;BME280_humidity;BME280_pressure;Samples;Min_cycle;Max_cycle;Signal;HPM_P1;HPM_P2
2022/07/07 00:01:28;;;;;;;5.00;4.60;;;14.70;1.00;;;;;;5035518;28;20172;-76
2022/07/07 00:03:54;;;;;;;5.30;4.87;;;14.70;1.00;;;;;;5032266;28;20652;-78
2022/07/07 00:06:20;;;;;;;5.00;4.60;;;14.70;1.00;;;;;;5033174;28;20432;-79
2022/07/07 00:08:47;;;;;;;4.87;4.43;;;14.70;1.00;;;;;;5032763;28;20179;-77
2022/07/07 00:11:15;;;;;;;5.07;4.67;;;14.70;1.00;;;;;;5047732;28;20186;-77
2022/07/07 00:13:41;;;;;;;5.30;4.80;;;14.70;1.00;;;;;;5043852;28;20465;-78
2022/07/07 00:16:07;;;;;;;5.40;5.00;;;14.70;1.00;;;;;;5036285;28;20433;-78
2022/07/07 00:18:32;;;;;;;4.53;4.23;;;14.70;1.00;;;;;;5033084;28;20493;-76
2022/07/07 00:21:01;;;;;;;4.30;4.00;;;14.70;1.00;;;;;;5033099;28;20175;-76
2022/07/07 00:23:27;;;;;;;5.00;4.60;;;14.70;1.00;;;;;;5046813;28;20202;-77
2022/07/07 00:25:52;;;;;;;5.57;5.07;;;14.70;1.00;;;;;;5051308;28;20525;-77
2022/07/07 00:28:21;;;;;;;6.47;3.97;;;14.80;1.00;;;;;;5050973;28;20241;-77
2022/07/07 00:30:47;;;;;;;4.90;4.40;;;14.80;1.00;;;;;;5050412;28;20594;-79
2022/07/07 00:33:14;;;;;;;4.20;3.90;;;14.90;1.00;;;;;;5037628;28;20449;-78
2022/07/07 00:35:40;;;;;;;5.70;5.30;;;14.90;1.00;;;;;;5052814;28;20433;-77
2022/07/07 00:38:06;;;;;;;3.93;3.63;;;14.90;1.00;;;;;;5051879;28;20425;-79
2022/07/07 00:40:32;;;;;;;4.20;3.90;;;15.00;1.00;;;;;;5052700;28;20413;-77
2022/07/07 00:42:58;;;;;;;3.83;3.63;;;15.00;1.00;;;;;;5036766;28;20171;-81
2022/07/07 00:45:24;;;;;;;4.60;4.20;;;15.00;1.00;;;;;;5032522;28;20746;-78
2022/07/07 00:47:50;;;;;;;3.03;2.83;;;15.00;1.00;;;;;;5040902;28;20201;-77
2022/07/07 00:50:16;;;;;;;3.23;3.03;;;15.10;1.00;;;;;;5051591;28;20817;-82
2022/07/07 00:52:42;;;;;;;3.00;2.80;;;15.10;1.00;;;;;;5035451;28;20648;-81
2022/07/07 00:55:08;;;;;;;3.30;3.10;;;15.10;1.00;;;;;;5038807;28;20500;-83
2022/07/07 00:57:34;;;;;;;3.80;3.60;;;15.10;1.00;;;;;;5052497;28;20383;-78
2022/07/07 01:00:04;;;;;;;2.73;2.53;;;15.20;1.00;;;;;;5047576;28;20509;-78
2022/07/07 01:02:31;;;;;;;3.00;2.80;;;15.20;1.00;;;;;;5032656;28;21318;-79
2022/07/07 01:05:02;;;;;;;3.37;3.07;;;15.20;1.00;;;;;;5033788;28;20461;-77
2022/07/07 01:07:28;;;;;;;2.67;2.50;;;15.20;1.00;;;;;;5031827;28;20473;-76
2022/07/07 01:09:56;;;;;;;2.37;2.27;;;15.20;1.00;;;;;;5035098;28;20393;-76
2022/07/07 01:12:22;;;;;;;2.43;2.33;;;15.30;1.00;;;;;;5047001;28;20433;-75
2022/07/07 01:14:48;;;;;;;2.20;2.10;;;15.20;1.00;;;;;;5035566;28;20488;-75
2022/07/07 01:17:14;;;;;;;2.80;2.60;;;15.30;1.00;;;;;;5033740;28;20782;-81
2022/07/07 01:19:39;;;;;;;2.30;2.20;;;15.30;1.00;;;;;;5044490;28;20167;-77
2022/07/07 01:22:16;;;;;;;2.20;2.00;;;15.40;1.00;;;;;;5035243;28;20171;-76
2022/07/07 01:24:42;;;;;;;2.50;2.40;;;15.40;1.00;;;;;;5055276;28;20182;-79
2022/07/07 01:27:12;;;;;;;3.03;2.80;;;15.40;1.00;;;;;;5055163;28;20408;-79
2022/07/07 01:29:41;;;;;;;2.90;2.70;;;15.40;1.00;;;;;;5034625;28;20426;-80
2022/07/07 01:32:08;;;;;;;2.20;2.00;;;15.40;1.00;;;;;;5035562;28;20426;-76
2022/07/07 01:34:35;;;;;;;2.90;2.60;;;15.40;1.00;;;;;;5053678;28;20463;-76
2022/07/07 01:37:01;;;;;;;2.50;2.30;;;15.50;1.00;;;;;;5041242;28;20433;-75
2022/07/07 01:39:26;;;;;;;2.50;2.30;;;15.60;1.00;;;;;;5053044;28;20421;-75
2022/07/07 01:41:52;;;;;;;2.47;2.37;;;15.60;1.00;;;;;;5055387;28;20476;-79
2022/07/07 01:44:18;;;;;;;2.10;1.90;;;15.60;1.00;;;;;;5038258;28;20851;-80
2022/07/07 01:46:44;;;;;;;2.10;2.00;;;15.60;1.00;;;;;;5035500;28;20175;-75
2022/07/07 01:49:10;;;;;;;2.43;2.23;;;15.60;1.00;;;;;;5049566;28;20178;-79
2022/07/07 01:51:35;;;;;;;2.20;2.03;;;15.60;1.00;;;;;;5055435;28;20179;-73
2022/07/07 01:54:01;;;;;;;2.00;1.90;;;15.60;1.00;;;;;;5034927;28;20473;-78
2022/07/07 01:56:27;;;;;;;2.13;2.03;;;15.70;1.00;;;;;;5035477;28;20159;-73
2022/07/07 01:58:52;;;;;;;5.20;1.83;;;15.70;1.00;;;;;;5045294;28;20205;-74
2022/07/07 02:01:18;;;;;;;2.10;2.00;;;15.70;1.00;;;;;;5054730;28;20174;-79
2022/07/07 02:03:44;;;;;;;2.57;2.40;;;15.80;1.00;;;;;;5045342;28;20207;-73
2022/07/07 02:06:10;;;;;;;2.20;2.00;;;15.80;1.00;;;;;;5035299;28;20636;-80
2022/07/07 02:08:35;;;;;;;2.10;2.00;;;15.80;1.00;;;;;;5038687;28;20210;-79
2022/07/07 02:11:13;;;;;;;2.10;1.93;;;15.90;1.00;;;;;;5055058;28;20210;-74
2022/07/07 02:13:40;;;;;;;3.63;2.53;;;15.80;1.00;;;;;;5047010;28;20260;-79
2022/07/07 02:16:06;;;;;;;1.90;1.73;;;15.90;1.00;;;;;;5035151;28;20386;-79
2022/07/07 02:18:37;;;;;;;2.47;2.27;;;15.90;1.00;;;;;;5039821;28;20532;-74
2022/07/07 02:21:04;;;;;;;2.37;2.17;;;15.90;1.00;;;;;;5054063;28;20405;-75
2022/07/07 02:23:31;;;;;;;2.50;2.30;;;15.90;1.00;;;;;;5049521;28;20438;-74
2022/07/07 02:25:56;;;;;;;2.47;2.27;;;15.90;1.00;;;;;;5036875;28;20444;-81
2022/07/07 02:28:26;;;;;;;2.33;2.17;;;15.90;1.00;;;;;;5038518;28;20417;-78
2022/07/07 02:30:54;;;;;;;4.60;2.53;;;15.90;1.00;;;;;;5034834;28;20955;-75
2022/07/07 02:33:20;;;;;;;2.23;2.13;;;15.90;1.00;;;;;;5033854;28;20946;-75
2022/07/07 02:35:47;;;;;;;5.20;2.90;;;16.00;1.00;;;;;;5034479;28;20398;-76
2022/07/07 02:38:13;;;;;;;2.70;2.50;;;16.00;1.00;;;;;;5051181;28;20994;-75
2022/07/07 02:40:39;;;;;;;2.10;2.00;;;16.00;1.00;;;;;;5052737;28;20433;-82
2022/07/07 02:43:05;;;;;;;2.90;2.70;;;16.00;1.00;;;;;;5036163;28;20424;-81
2022/07/07 02:45:31;;;;;;;2.40;2.20;;;16.00;1.00;;;;;;5034463;28;20571;-75
2022/07/07 02:47:56;;;;;;;2.70;2.50;;;16.00;1.00;;;;;;5048156;28;20171;-75
2022/07/07 02:50:22;;;;;;;2.97;2.70;;;16.00;1.00;;;;;;5054325;28;20220;-82
2022/07/07 02:52:48;;;;;;;2.90;2.70;;;16.00;1.00;;;;;;5039909;28;20262;-75
2022/07/07 02:55:14;;;;;;;2.73;2.53;;;16.00;1.00;;;;;;5034007;28;20679;-81
2022/07/07 02:57:40;;;;;;;3.90;3.33;;;16.10;1.00;;;;;;5045695;28;20925;-81
2022/07/07 03:00:07;;;;;;;3.27;3.07;;;16.00;1.00;;;;;;5052554;28;20178;-79
2022/07/07 03:02:34;;;;;;;2.70;2.37;;;16.10;1.00;;;;;;5042910;28;20197;-80
2022/07/07 03:05:00;;;;;;;2.13;2.03;;;16.00;1.00;;;;;;5034117;28;20472;-74
2022/07/07 03:07:26;;;;;;;3.30;3.10;;;16.00;1.00;;;;;;5035040;28;20501;-80
2022/07/07 03:09:51;;;;;;;2.20;2.10;;;16.00;1.00;;;;;;5033990;28;20501;-82
2022/07/07 03:12:17;;;;;;;2.80;2.60;;;16.10;1.00;;;;;;5033710;28;20210;-80
2022/07/07 03:14:43;;;;;;;2.90;2.63;;;16.10;1.00;;;;;;5052320;28;20210;-78
2022/07/07 03:17:08;;;;;;;2.47;2.37;;;16.00;1.00;;;;;;5049278;28;20664;-75
2022/07/07 03:19:39;;;;;;;3.00;2.70;;;16.00;1.00;;;;;;5032833;28;20175;-81
2022/07/07 03:22:04;;;;;;;2.70;2.50;;;16.00;1.00;;;;;;5035269;28;20177;-73
2022/07/07 03:24:31;;;;;;;2.60;2.40;;;16.10;1.00;;;;;;5053082;28;20425;-74
2022/07/07 03:26:59;;;;;;;7.43;2.50;;;16.10;1.00;;;;;;5036538;28;20179;-80
2022/07/07 03:29:25;;;;;;;2.13;1.63;;;16.00;1.00;;;;;;5033108;28;20422;-72
2022/07/07 03:31:51;;;;;;;2.30;2.07;;;16.10;1.00;;;;;;5049057;28;20417;-71
2022/07/07 03:34:16;;;;;;;3.13;2.37;;;16.10;1.00;;;;;;5052169;28;20431;-79
2022/07/07 03:36:42;;;;;;;2.27;1.57;;;16.10;1.00;;;;;;5039171;28;20171;-73
2022/07/07 03:39:08;;;;;;;2.80;1.80;;;16.10;1.00;;;;;;5033610;28;20254;-72
2022/07/07 03:41:34;;;;;;;1.60;1.50;;;16.00;1.00;;;;;;5036514;28;20164;-71
2022/07/07 03:43:59;;;;;;;1.60;1.50;;;16.00;1.00;;;;;;5032116;28;20213;-79
2022/07/07 03:46:25;;;;;;;2.17;1.57;;;16.10;1.00;;;;;;5040173;28;20248;-80
2022/07/07 03:48:51;;;;;;;1.77;1.67;;;16.10;1.00;;;;;;5053324;28;20189;-81
2022/07/07 03:51:17;;;;;;;2.63;1.43;;;16.00;1.00;;;;;;5040920;28;20175;-79
2022/07/07 03:53:42;;;;;;;1.77;1.67;;;15.90;1.00;;;;;;5032215;28;20289;-71
2022/07/07 03:56:08;;;;;;;6.53;1.50;;;16.00;1.00;;;;;;5034160;28;20349;-72
2022/07/07 03:58:34;;;;;;;1.50;1.40;;;16.10;1.00;;;;;;5033561;28;20175;-79
2022/07/07 04:01:00;;;;;;;2.00;1.80;;;16.10;1.00;;;;;;5033222;28;20687;-79
2022/07/07 04:03:26;;;;;;;2.23;1.60;;;16.10;1.00;;;;;;5032858;28;20210;-76
2022/07/07 04:05:52;;;;;;;3.70;1.93;;;16.10;1.00;;;;;;5053088;28;20496;-71
2022/07/07 04:08:17;;;;;;;1.70;1.50;;;16.10;1.00;;;;;;5053041;28;20488;-71
2022/07/07 04:10:43;;;;;;;2.90;1.40;;;16.10;1.00;;;;;;5033708;28;20183;-71
2022/07/07 04:13:09;;;;;;;1.73;1.63;;;16.10;1.00;;;;;;5031192;28;20191;-70
2022/07/07 04:15:35;;;;;;;2.53;1.80;;;16.20;1.00;;;;;;5050101;28;20504;-71
2022/07/07 04:18:01;;;;;;;2.20;2.00;;;16.10;1.00;;;;;;5050888;28;20281;-75
2022/07/07 04:20:29;;;;;;;1.90;1.80;;;16.10;1.00;;;;;;5036977;28;20171;-71
2022/07/07 04:22:55;;;;;;;1.70;1.60;;;16.20;1.00;;;;;;5032072;28;20405;-78
2022/07/07 04:25:21;;;;;;;2.27;2.07;;;16.20;1.00;;;;;;5046677;28;20536;-71
2022/07/07 04:27:47;;;;;;;3.80;2.17;;;16.30;1.00;;;;;;5052871;28;20496;-77
2022/07/07 04:30:12;;;;;;;4.80;1.60;;;16.20;1.00;;;;;;5042539;28;20171;-70
2022/07/07 04:32:38;;;;;;;1.57;1.47;;;16.20;1.00;;;;;;5048432;28;20206;-70
2022/07/07 04:35:04;;;;;;;2.80;1.70;;;16.20;1.00;;;;;;5044141;28;20200;-70
2022/07/07 04:37:30;;;;;;;2.80;1.47;;;16.10;1.00;;;;;;5031210;28;20216;-77
2022/07/07 04:39:55;;;;;;;1.97;1.30;;;16.20;1.00;;;;;;5034006;28;20495;-76
2022/07/07 04:42:21;;;;;;;2.43;1.70;;;16.30;1.00;;;;;;5050548;28;20655;-70
2022/07/07 04:44:47;;;;;;;2.90;1.83;;;16.30;1.00;;;;;;5045581;28;20660;-77
2022/07/07 04:47:12;;;;;;;1.93;1.73;;;16.30;1.00;;;;;;5032033;28;20560;-75
2022/07/07 04:49:38;;;;;;;5.23;2.60;;;16.30;1.00;;;;;;5036261;28;20254;-70
2022/07/07 04:52:04;;;;;;;1.80;1.23;;;16.30;1.00;;;;;;5030978;28;20192;-71
2022/07/07 04:54:30;;;;;;;1.63;1.53;;;16.30;1.00;;;;;;5037396;28;20209;-70
2022/07/07 04:56:55;;;;;;;3.70;1.83;;;16.20;1.00;;;;;;5054310;28;20801;-70
2022/07/07 04:59:21;;;;;;;2.13;1.43;;;16.30;1.00;;;;;;5049392;28;20180;-72
2022/07/07 05:01:47;;;;;;;2.37;1.80;;;16.30;1.00;;;;;;5036524;28;20156;-75
2022/07/07 05:04:12;;;;;;;1.43;1.33;;;16.30;1.00;;;;;;5037141;28;20560;-76
2022/07/07 05:06:38;;;;;;;1.70;1.60;;;16.30;1.00;;;;;;5035528;28;20179;-69
2022/07/07 05:09:04;;;;;;;1.80;1.70;;;16.30;1.00;;;;;;5035510;28;20171;-77
2022/07/07 05:11:29;;;;;;;1.70;1.60;;;16.40;1.00;;;;;;5036066;28;20175;-77
2022/07/07 05:13:55;;;;;;;1.83;1.50;;;16.50;1.00;;;;;;5039332;28;20281;-69
2022/07/07 05:16:21;;;;;;;2.20;1.60;;;16.60;1.00;;;;;;5056100;28;20824;-76
2022/07/07 05:18:47;;;;;;;2.67;1.80;;;16.70;1.00;;;;;;5053119;28;20178;-70
2022/07/07 05:21:12;;;;;;;2.47;1.40;;;16.80;1.00;;;;;;5035911;28;20203;-70
2022/07/07 05:23:38;;;;;;;3.97;1.43;;;16.80;1.00;;;;;;5033885;28;20441;-75
2022/07/07 05:26:04;;;;;;;3.50;1.70;;;16.80;1.00;;;;;;5054937;28;20185;-75
2022/07/07 05:28:31;;;;;;;1.57;1.47;;;16.90;1.00;;;;;;5054712;28;20643;-69
2022/07/07 05:30:57;;;;;;;2.00;1.90;;;16.90;1.00;;;;;;5036179;28;20535;-69
2022/07/07 05:33:22;;;;;;;2.87;1.33;;;16.90;1.00;;;;;;5034977;28;20458;-72
2022/07/07 05:35:48;;;;;;;2.03;1.50;;;16.90;1.00;;;;;;5051403;28;20442;-70
2022/07/07 05:38:14;;;;;;;3.93;2.13;;;16.90;1.00;;;;;;5054454;28;20224;-76
2022/07/07 05:40:40;;;;;;;1.77;1.30;;;17.00;1.00;;;;;;5039408;28;20180;-78
2022/07/07 05:43:05;;;;;;;3.43;1.40;;;17.00;1.00;;;;;;5032992;28;20628;-77
2022/07/07 05:45:31;;;;;;;2.80;1.53;;;17.00;1.00;;;;;;5048411;28;20175;-79
2022/07/07 05:47:57;;;;;;;3.90;1.50;;;16.90;1.00;;;;;;5051555;28;20193;-75
2022/07/07 05:50:23;;;;;;;2.43;1.60;;;16.90;1.00;;;;;;5042472;28;20770;-70
2022/07/07 05:52:48;;;;;;;4.50;1.40;;;16.90;1.00;;;;;;5053527;28;20175;-76
2022/07/07 05:55:14;;;;;;;1.50;1.40;;;16.90;1.00;;;;;;5055489;28;20701;-76
2022/07/07 05:57:40;;;;;;;2.53;1.33;;;16.90;1.00;;;;;;5037459;28;20678;-69
2022/07/07 06:00:07;;;;;;;4.07;1.80;;;16.90;1.00;;;;;;5035414;28;20233;-69
2022/07/07 06:02:32;;;;;;;1.60;1.50;;;17.00;1.00;;;;;;5032112;28;20436;-77
2022/07/07 06:04:58;;;;;;;1.70;1.60;;;17.10;1.00;;;;;;5052615;28;20457;-69
2022/07/07 06:07:25;;;;;;;5.73;1.40;;;17.20;1.00;;;;;;5040268;28;20267;-76
2022/07/07 06:09:50;;;;;;;1.63;1.53;;;17.10;1.00;;;;;;5034008;28;20176;-69
2022/07/07 06:12:16;;;;;;;5.67;1.50;;;17.10;1.00;;;;;;5046801;28;20425;-69
2022/07/07 06:14:42;;;;;;;1.40;1.10;;;17.20;1.00;;;;;;5054857;28;20686;-71
2022/07/07 06:17:07;;;;;;;1.40;1.30;;;17.30;1.00;;;;;;5053329;28;20224;-75
2022/07/07 06:19:33;;;;;;;3.10;1.20;;;17.20;1.00;;;;;;5054902;28;20631;-72
2022/07/07 06:21:59;;;;;;;1.27;1.00;;;17.30;1.00;;;;;;5046962;28;20175;-70
2022/07/07 06:24:24;;;;;;;1.50;1.40;;;17.30;1.00;;;;;;5053108;28;20555;-76
2022/07/07 06:26:50;;;;;;;1.40;1.30;;;17.30;1.00;;;;;;5046991;28;20181;-71
2022/07/07 06:29:17;;;;;;;2.13;1.40;;;17.20;1.00;;;;;;5034915;28;20163;-71
2022/07/07 06:31:42;;;;;;;1.50;1.30;;;17.20;1.00;;;;;;5039201;28;20179;-76
2022/07/07 06:34:08;;;;;;;1.50;1.40;;;17.30;1.00;;;;;;5049630;28;20468;-71
2022/07/07 06:36:34;;;;;;;3.33;1.83;;;17.30;1.00;;;;;;5033789;28;20517;-71
2022/07/07 06:38:59;;;;;;;1.50;1.27;;;17.30;1.00;;;;;;5046772;28;20211;-72
2022/07/07 06:41:36;;;;;;;1.60;1.50;;;17.50;1.00;;;;;;5033790;28;20164;-76
2022/07/07 06:44:03;;;;;;;2.83;1.53;;;17.60;1.00;;;;;;5033989;28;20214;-77
2022/07/07 06:46:29;;;;;;;4.27;1.60;;;17.60;1.00;;;;;;5054465;28;20953;-76
2022/07/07 06:48:55;;;;;;;2.03;1.93;;;17.60;1.00;;;;;;5054315;28;20425;-76
2022/07/07 06:51:21;;;;;;;1.40;1.30;;;17.70;1.00;;;;;;5034910;28;20529;-72
2022/07/07 06:53:47;;;;;;;2.13;1.47;;;17.70;1.00;;;;;;5033124;28;20468;-77
2022/07/07 06:56:13;;;;;;;4.17;1.70;;;17.70;1.00;;;;;;5051573;28;20171;-76
2022/07/07 06:58:39;;;;;;;4.00;1.80;;;17.80;1.00;;;;;;5054137;28;20171;-77
2022/07/07 07:01:04;;;;;;;2.03;1.23;;;17.90;1.00;;;;;;5037480;28;20255;-75
2022/07/07 07:03:30;;;;;;;2.10;1.40;;;18.00;1.00;;;;;;5033060;28;20191;-75
2022/07/07 07:05:56;;;;;;;3.83;1.57;;;18.00;1.00;;;;;;5033234;28;20418;-76
2022/07/07 07:08:22;;;;;;;2.53;1.80;;;18.00;1.00;;;;;;5032842;28;20655;-77
2022/07/07 07:10:47;;;;;;;2.10;1.70;;;17.90;1.00;;;;;;5033430;28;20237;-75
2022/07/07 07:13:13;;;;;;;2.33;2.00;;;17.80;1.00;;;;;;5040818;28;20643;-71
2022/07/07 07:15:39;;;;;;;3.50;2.30;;;17.80;1.00;;;;;;5053951;28;20171;-71
2022/07/07 07:18:06;;;;;;;2.00;1.80;;;17.70;1.00;;;;;;5053301;28;20484;-71
2022/07/07 07:20:32;;;;;;;1.70;1.60;;;17.70;1.00;;;;;;5052891;28;20165;-76
2022/07/07 07:22:58;;;;;;;3.73;2.10;;;17.60;1.00;;;;;;5051863;28;20420;-76
2022/07/07 07:25:24;;;;;;;1.63;1.53;;;17.50;1.00;;;;;;5052345;28;20920;-72
2022/07/07 07:27:49;;;;;;;5.50;1.60;;;17.40;1.00;;;;;;5033136;28;20210;-71
2022/07/07 07:30:15;;;;;;;2.30;1.53;;;17.40;99.90;;;;;;5033775;28;20171;-75
2022/07/07 07:32:44;;;;;;;2.00;1.33;;;17.50;99.90;;;;;;5032822;28;20160;-71
2022/07/07 07:35:10;;;;;;;2.03;1.50;;;17.60;99.90;;;;;;5033575;28;20207;-76
2022/07/07 07:37:38;;;;;;;2.50;1.73;;;17.80;99.90;;;;;;5033473;28;20407;-75
2022/07/07 07:40:06;;;;;;;2.73;1.70;;;17.90;99.90;;;;;;5032693;28;20875;-75
2022/07/07 07:42:32;;;;;;;1.40;1.30;;;17.90;99.90;;;;;;5038861;28;20782;-71
2022/07/07 07:45:10;;;;;;;3.10;1.50;;;17.90;99.90;;;;;;5052035;28;20453;-71
2022/07/07 07:47:37;;;;;;;1.70;1.57;;;17.90;99.90;;;;;;5051327;28;20231;-75
2022/07/07 07:50:03;;;;;;;2.40;1.97;;;18.00;99.90;;;;;;5053283;28;20413;-73
2022/07/07 07:52:28;;;;;;;5.27;1.90;;;17.90;99.90;;;;;;5047488;28;21017;-70
2022/07/07 07:54:54;;;;;;;1.77;1.57;;;18.00;99.90;;;;;;5033158;28;20458;-75
2022/07/07 07:57:20;;;;;;;1.93;1.23;;;18.10;99.90;;;;;;5035961;28;20187;-75
2022/07/07 07:59:45;;;;;;;3.33;1.70;;;18.10;99.90;;;;;;5046366;28;20262;-71
2022/07/07 08:02:11;;;;;;;1.90;1.80;;;18.10;99.90;;;;;;5048817;28;20175;-71
2022/07/07 08:04:37;;;;;;;2.03;1.57;;;18.10;99.90;;;;;;5052400;28;20199;-70
2022/07/07 08:07:03;;;;;;;1.77;1.37;;;18.10;99.90;;;;;;5053504;28;20181;-76
2022/07/07 08:09:29;;;;;;;2.13;1.63;;;18.00;99.90;;;;;;5052649;28;20425;-71
2022/07/07 08:11:54;;;;;;;2.23;1.67;;;17.90;99.90;;;;;;5053297;28;20233;-74
2022/07/07 08:14:21;;;;;;;1.83;1.70;;;18.00;99.90;;;;;;5049706;28;20869;-74
2022/07/07 08:16:46;;;;;;;1.90;1.70;;;18.00;99.90;;;;;;5053290;28;20163;-70
2022/07/07 08:19:17;;;;;;;2.10;1.70;;;17.90;99.90;;;;;;5036876;28;20532;-75
2022/07/07 08:21:46;;;;;;;2.57;1.80;;;17.70;99.90;;;;;;5032381;28;20643;-76
2022/07/07 08:24:13;;;;;;;2.20;1.13;;;17.70;99.90;;;;;;5032333;28;20426;-70
2022/07/07 08:26:39;;;;;;;2.50;1.47;;;17.50;99.90;;;;;;5036984;28;20441;-75
2022/07/07 08:29:05;;;;;;;2.90;1.70;;;17.50;99.90;;;;;;5053370;28;20774;-70
2022/07/07 08:31:31;;;;;;;1.83;1.30;;;17.40;99.90;;;;;;5054483;28;20437;-70
2022/07/07 08:33:56;;;;;;;3.50;1.40;;;17.40;99.90;;;;;;5054733;28;20961;-73
2022/07/07 08:36:22;;;;;;;1.30;1.17;;;17.40;99.90;;;;;;5057173;28;20198;-74
2022/07/07 08:38:48;;;;;;;1.20;1.10;;;17.40;99.90;;;;;;5052639;28;20182;-70
2022/07/07 08:41:15;;;;;;;4.53;1.60;;;17.60;99.90;;;;;;5046438;28;20228;-74
2022/07/07 08:43:41;;;;;;;1.30;1.13;;;17.80;99.90;;;;;;5035864;28;20262;-71
2022/07/07 08:46:08;;;;;;;1.30;1.20;;;18.00;99.90;;;;;;5040689;28;20437;-74
2022/07/07 08:48:34;;;;;;;1.30;1.20;;;18.10;99.90;;;;;;5037097;28;20225;-75
2022/07/07 08:51:01;;;;;;;1.43;1.33;;;18.20;99.90;;;;;;5035966;28;20425;-75
2022/07/07 08:53:32;;;;;;;3.97;1.40;;;18.40;99.90;;;;;;5034997;28;20230;-70
2022/07/07 08:55:59;;;;;;;2.03;1.20;;;18.50;99.90;;;;;;5048689;28;20922;-74
2022/07/07 08:58:25;;;;;;;2.20;1.90;;;18.40;99.90;;;;;;5055298;28;20418;-70
2022/07/07 09:00:53;;;;;;;1.60;1.20;;;18.40;99.90;;;;;;5039636;28;20468;-70
2022/07/07 09:03:18;;;;;;;1.63;1.33;;;18.40;99.90;;;;;;5040222;28;20433;-75
2022/07/07 09:05:44;;;;;;;2.50;1.17;;;18.40;99.90;;;;;;5056610;28;20401;-73
2022/07/07 09:08:17;;;;;;;1.23;1.13;;;18.40;99.90;;;;;;5052281;28;20180;-75
2022/07/07 09:10:44;;;;;;;2.57;1.50;;;18.40;99.90;;;;;;5036623;28;20681;-75
2022/07/07 09:13:39;;;;;;;4.03;1.53;;;18.40;99.90;;;;;;5035456;28;20433;-72
2022/07/07 09:16:14;;;;;;;1.83;1.50;;;18.40;99.90;;;;;;5025878;28;20906;-75
2022/07/07 09:18:43;;;;;;;3.73;1.67;;;18.20;87.00;;;;;;5036603;28;20486;-75
2022/07/07 09:21:31;;;;;;;2.90;1.47;;;18.10;75.10;;;;;;5036268;28;20493;-75
2022/07/07 09:23:59;;;;;;;4.70;1.80;;;18.10;86.90;;;;;;5042501;28;20456;-74
2022/07/07 09:26:47;;;;;;;2.23;1.30;;;18.20;86.70;;;;;;5055186;28;20476;-70
2022/07/07 09:29:17;;;;;;;6.57;1.40;;;18.30;87.00;;;;;;5044676;28;20420;-70
2022/07/07 09:32:04;;;;;;;2.53;2.10;;;18.40;83.20;;;;;;5035987;28;20456;-69
2022/07/07 09:34:37;;;;;;;3.43;1.77;;;18.30;48.60;;;;;;5034766;28;21007;-70
2022/07/07 09:39:55;;;;;;;3.63;1.50;;;18.40;28.40;;;;;;5054675;28;20529;-70
2022/07/07 09:42:29;;;;;;;3.00;1.53;;;18.50;1.00;;;;;;5053680;28;20920;-74
2022/07/07 09:44:56;;;;;;;3.73;1.47;;;18.60;1.00;;;;;;5054154;28;20456;-74
2022/07/07 09:47:24;;;;;;;6.30;1.67;;;19.10;1.00;;;;;;5055308;28;20393;-69
2022/07/07 09:50:06;;;;;;;2.80;1.50;;;19.50;1.00;;;;;;5043069;28;20433;-69
2022/07/07 09:52:34;;;;;;;4.97;1.60;;;19.70;1.00;;;;;;5051065;28;20937;-74
2022/07/07 09:55:00;;;;;;;3.97;1.17;;;20.10;1.00;;;;;;5055632;28;20813;-75
2022/07/07 09:57:26;;;;;;;3.43;1.57;;;20.50;1.00;;;;;;5054646;28;20417;-75
2022/07/07 09:59:53;;;;;;;2.93;1.30;;;20.30;99.90;;;;;;5055152;28;20959;-74
2022/07/07 10:02:22;;;;;;;2.43;1.27;;;20.30;99.90;;;;;;5051594;28;20410;-70
2022/07/07 10:05:00;;;;;;;1.80;1.40;;;19.90;99.90;;;;;;5041089;28;20464;-69
2022/07/07 10:07:30;;;;;;;2.13;1.77;;;19.50;99.90;;;;;;5053474;28;20424;-76
2022/07/07 10:10:00;;;;;;;2.90;1.40;;;19.40;99.90;;;;;;5035590;28;20763;-76
2022/07/07 10:12:27;;;;;;;2.27;0.90;;;19.50;99.90;;;;;;5035615;28;20429;-74
2022/07/07 10:15:08;;;;;;;3.33;1.73;;;19.60;99.90;;;;;;5035227;28;20469;-69
2022/07/07 10:17:36;;;;;;;3.20;1.70;;;19.60;99.90;;;;;;5039579;28;20420;-75
2022/07/07 10:20:02;;;;;;;4.30;1.20;;;19.50;99.90;;;;;;5050046;28;20771;-69
2022/07/07 10:22:28;;;;;;;6.60;1.33;;;19.30;99.90;;;;;;5050117;28;20771;-75
2022/07/07 10:24:56;;;;;;;3.20;1.50;;;19.10;99.90;;;;;;5035305;28;20446;-74
2022/07/07 10:27:24;;;;;;;2.30;1.73;;;18.90;99.90;;;;;;5037999;28;20508;-69
2022/07/07 10:30:00;;;;;;;2.93;1.43;;;18.90;99.90;;;;;;5053962;28;20914;-75
2022/07/07 10:32:31;;;;;;;4.00;1.13;;;19.20;99.90;;;;;;5052368;28;20837;-75
2022/07/07 10:35:04;;;;;;;1.77;1.63;;;19.70;99.90;;;;;;5054922;28;20529;-74
2022/07/07 10:37:42;;;;;;;1.67;1.37;;;20.30;99.90;;;;;;5050573;28;20767;-76
2022/07/07 10:40:12;;;;;;;4.13;1.33;;;21.00;99.90;;;;;;5034177;28;20403;-70
2022/07/07 10:42:37;;;;;;;1.30;0.80;;;21.80;99.90;;;;;;5037303;28;20405;-70
2022/07/07 10:45:04;;;;;;;1.87;0.90;;;22.00;99.90;;;;;;5054738;28;20952;-74
2022/07/07 10:47:32;;;;;;;1.50;1.10;;;21.70;99.90;;;;;;5049693;28;20191;-69
2022/07/07 10:49:59;;;;;;;1.30;0.97;;;21.30;99.90;;;;;;5035063;28;20484;-69
2022/07/07 10:52:26;;;;;;;1.10;1.00;;;20.70;99.90;;;;;;5035637;28;20759;-70
2022/07/07 10:54:53;;;;;;;1.10;0.80;;;20.40;99.90;;;;;;5053635;28;20453;-69
2022/07/07 10:57:21;;;;;;;3.93;1.20;;;19.90;99.90;;;;;;5053793;28;20512;-70
2022/07/07 10:59:56;;;;;;;1.57;1.40;;;19.60;99.90;;;;;;5033459;28;20395;-75
2022/07/07 11:02:55;;;;;;;2.27;1.13;;;19.30;99.90;;;;;;5049187;28;20405;-74
2022/07/07 11:05:20;;;;;;;1.50;1.00;;;19.10;99.90;;;;;;5037648;28;20458;-75
2022/07/07 11:07:59;;;;;;;1.20;1.10;;;18.80;99.90;;;;;;5037538;28;20433;-75
2022/07/07 11:10:37;;;;;;;1.60;1.10;;;18.60;99.90;;;;;;5053114;28;20527;-76
2022/07/07 11:13:21;;;;;;;1.87;1.20;;;18.40;99.90;;;;;;5051401;28;20516;-70
2022/07/07 11:16:13;;;;;;;1.73;1.10;;;18.40;99.90;;;;;;5051648;28;21014;-74
2022/07/07 11:18:39;;;;;;;2.47;1.20;;;18.40;99.90;;;;;;5040984;28;20417;-76
2022/07/07 11:21:06;;;;;;;1.50;1.10;;;18.30;99.90;;;;;;5033786;28;20391;-72
2022/07/07 11:23:55;;;;;;;2.60;1.20;;;18.20;99.90;;;;;;5044096;28;20536;-71
2022/07/07 11:26:27;;;;;;;2.80;1.37;;;18.20;99.90;;;;;;5053975;28;20793;-69
2022/07/07 11:28:55;;;;;;;1.40;1.23;;;18.20;99.90;;;;;;5045313;28;20826;-74
2022/07/07 11:31:21;;;;;;;2.80;1.50;;;18.20;99.90;;;;;;5053969;28;20439;-75
2022/07/07 11:33:55;;;;;;;2.33;1.83;;;18.40;99.90;;;;;;5035627;28;20458;-74
2022/07/07 11:36:23;;;;;;;5.70;1.97;;;18.70;99.90;;;;;;5033983;28;20871;-76
2022/07/07 11:38:53;;;;;;;2.13;1.30;;;18.90;99.90;;;;;;5049625;28;20479;-75
2022/07/07 11:41:19;;;;;;;2.57;1.50;;;19.10;99.90;;;;;;5053797;28;20406;-76
2022/07/07 11:43:54;;;;;;;7.37;2.23;;;19.30;99.90;;;;;;5035816;28;20507;-75
2022/07/07 11:46:23;;;;;;;1.90;1.67;;;19.50;99.90;;;;;;5034038;28;20886;-69
2022/07/07 11:48:49;;;;;;;4.67;1.90;;;19.50;99.90;;;;;;5048389;28;20426;-70
2022/07/07 11:51:15;;;;;;;3.47;1.07;;;19.40;99.90;;;;;;5053728;28;20404;-75
2022/07/07 11:53:40;;;;;;;4.57;1.90;;;19.10;99.90;;;;;;5038631;28;20218;-70
2022/07/07 11:56:06;;;;;;;2.97;1.43;;;19.00;99.90;;;;;;5032379;28;20636;-74
2022/07/07 11:58:32;;;;;;;6.43;1.93;;;18.80;99.90;;;;;;5044794;28;20193;-74
2022/07/07 12:00:59;;;;;;;2.33;2.13;;;18.60;99.90;;;;;;5053569;28;20797;-75
2022/07/07 12:03:33;;;;;;;4.50;1.50;;;18.60;99.90;;;;;;5042424;28;20480;-70
2022/07/07 12:05:59;;;;;;;3.73;2.20;;;18.80;99.90;;;;;;5033175;28;20412;-75
2022/07/07 12:08:33;;;;;;;7.23;1.60;;;18.70;99.90;;;;;;5042644;28;20410;-70
2022/07/07 12:11:00;;;;;;;3.87;1.70;;;18.70;99.90;;;;;;5050601;28;20440;-75
2022/07/07 12:13:26;;;;;;;5.50;2.43;;;18.70;99.90;;;;;;5050630;28;20449;-70
2022/07/07 12:15:54;;;;;;;13.73;2.40;;;18.80;99.90;;;;;;5053045;28;20429;-71
2022/07/07 12:18:31;;;;;;;5.73;2.30;;;18.80;99.90;;;;;;5045680;28;20784;-70
2022/07/07 12:20:59;;;;;;;4.77;2.37;;;18.70;99.90;;;;;;5033389;28;20426;-70
2022/07/07 12:23:24;;;;;;;14.63;2.10;;;18.90;99.90;;;;;;5039827;28;20425;-69
2022/07/07 12:25:50;;;;;;;5.70;2.90;;;18.80;99.90;;;;;;5049738;28;20541;-76
2022/07/07 12:28:16;;;;;;;5.23;2.53;;;18.80;99.90;;;;;;5046090;28;20175;-75
2022/07/07 12:30:56;;;;;;;3.67;1.87;;;18.80;99.90;;;;;;5046933;28;20397;-70
2022/07/07 12:33:31;;;;;;;10.00;2.37;;;18.70;99.90;;;;;;5052240;28;20762;-75
2022/07/07 12:36:16;;;;;;;14.30;2.57;;;18.60;99.90;;;;;;5049788;28;20511;-75
2022/07/07 12:38:47;;;;;;;3.73;2.27;;;18.50;99.90;;;;;;5040503;28;20429;-76
2022/07/07 12:41:39;;;;;;;8.47;3.00;;;18.40;99.90;;;;;;5041281;28;20764;-76
2022/07/07 12:44:22;;;;;;;8.20;2.47;;;18.30;99.90;;;;;;5032660;28;20450;-77
2022/07/07 12:46:48;;;;;;;7.67;2.53;;;18.30;99.90;;;;;;5047962;28;20461;-77
2022/07/07 12:49:14;;;;;;;5.63;2.40;;;18.40;99.90;;;;;;5053103;28;20405;-75
2022/07/07 12:51:44;;;;;;;4.73;1.63;;;18.50;99.90;;;;;;5037968;28;20889;-77
2022/07/07 12:54:30;;;;;;;6.50;2.67;;;18.60;99.90;;;;;;5050115;28;20465;-70
2022/07/07 12:57:02;;;;;;;9.67;2.63;;;18.70;99.90;;;;;;5046664;28;20473;-70
2022/07/07 12:59:35;;;;;;;8.77;2.50;;;18.70;99.90;;;;;;5062016;28;20417;-76